sensor_id;sensor_type;location;lat;lon;timestamp;pressure;altitude;pressure_sealevel;temperature;humidity
41632;BME280;37452;51.938;4.624;2023-03-11T00:01:40;77909.06;;;-142.75;100.00
41632;BME280;37452;51.938;4.624;2023-03-11T00:04:05;77922.88;;;-142.75;100.00
41632;BME280;37452;51.938;4.624;2023-03-11T00:06:33;77932.72;;;-142.75;100.00
41632;BME280;37452;51.938;4.624;2023-03-11T00:08:58;77938.63;;;-142.75;100.00
41632;BME280;37452;51.938;4.624;2023-03-11T00:11:23;77928.78;;;-142.75;100.00
41632;BME280;37452;51.938;4.624;2023-03-11T00:13:49;77928.78;;;-142.75;100.00
41632;BME280;37452;51.938;4.624;2023-03-11T00:16:14;77948.47;;;-142.75;100.00
41632;BME280;37452;51.938;4.624;2023-03-11T00:18:39;77936.66;;;-142.75;100.00
41632;BME280;37452;51.938;4.624;2023-03-11T00:21:04;77946.50;;;-142.75;100.00
41632;BME280;37452;51.938;4.624;2023-03-11T00:23:29;77952.41;;;-142.75;100.00
41632;BME280;37452;51.938;4.624;2023-03-11T00:25:56;77972.09;;;-142.75;100.00
41632;BME280;37452;51.938;4.624;2023-03-11T00:28:23;77970.13;;;-142.75;100.00
41632;BME280;37452;51.938;4.624;2023-03-11T00:30:50;77989.81;;;-142.75;100.00
41632;BME280;37452;51.938;4.624;2023-03-11T00:33:15;78017.38;;;-142.75;100.00
41632;BME280;37452;51.938;4.624;2023-03-11T00:35:41;78009.50;;;-142.75;100.00
41632;BME280;37452;51.938;4.624;2023-03-11T00:38:07;78015.41;;;-142.75;100.00
41632;BME280;37452;51.938;4.624;2023-03-11T00:40:39;78019.34;;;-142.75;100.00
41632;BME280;37452;51.938;4.624;2023-03-11T00:43:05;78035.09;;;-142.75;100.00
41632;BME280;37452;51.938;4.624;2023-03-11T00:45:30;78027.22;;;-142.75;100.00
41632;BME280;37452;51.938;4.624;2023-03-11T00:47:56;78042.97;;;-142.75;100.00
41632;BME280;37452;51.938;4.624;2023-03-11T00:50:26;78031.16;;;-142.75;100.00
41632;BME280;37452;51.938;4.624;2023-03-11T00:52:52;78041.00;;;-142.75;100.00
41632;BME280;37452;51.938;4.624;2023-03-11T00:55:19;78046.91;;;-142.75;100.00
41632;BME280;37452;51.938;4.624;2023-03-11T00:57:45;78027.22;;;-142.75;100.00
41632;BME280;37452;51.938;4.624;2023-03-11T01:00:17;78025.25;;;-142.75;100.00
41632;BME280;37452;51.938;4.624;2023-03-11T01:02:42;78031.16;;;-142.75;100.00
41632;BME280;37452;51.938;4.624;2023-03-11T01:05:08;78035.09;;;-142.75;100.00
41632;BME280;37452;51.938;4.624;2023-03-11T01:07:34;78039.03;;;-142.75;100.00
41632;BME280;37452;51.938;4.624;2023-03-11T01:09:59;78041.00;;;-142.75;100.00
41632;BME280;37452;51.938;4.624;2023-03-11T01:12:25;78037.06;;;-142.75;100.00
41632;BME280;37452;51.938;4.624;2023-03-11T01:14:50;78021.31;;;-142.75;100.00
41632;BME280;37452;51.938;4.624;2023-03-11T01:17:15;78048.88;;;-142.75;100.00
41632;BME280;37452;51.938;4.624;2023-03-11T01:19:41;78042.97;;;-142.75;100.00
41632;BME280;37452;51.938;4.624;2023-03-11T01:22:06;78054.81;;;-142.75;100.00
41632;BME280;37452;51.938;4.624;2023-03-11T01:24:31;78048.88;;;-142.75;100.00
41632;BME280;37452;51.938;4.624;2023-03-11T01:26:56;78060.72;;;-142.75;100.00
41632;BME280;37452;51.938;4.624;2023-03-11T01:29:22;78062.69;;;-142.75;100.00
41632;BME280;37452;51.938;4.624;2023-03-11T01:31:47;78060.72;;;-142.75;100.00
41632;BME280;37452;51.938;4.624;2023-03-11T01:34:12;78062.69;;;-142.75;100.00
41632;BME280;37452;51.938;4.624;2023-03-11T01:36:37;78060.72;;;-142.75;100.00
41632;BME280;37452;51.938;4.624;2023-03-11T01:39:03;78064.66;;;-142.75;100.00
41632;BME280;37452;51.938;4.624;2023-03-11T01:41:28;78070.56;;;-142.75;100.00
41632;BME280;37452;51.938;4.624;2023-03-11T01:43:53;78056.78;;;-142.75;100.00
41632;BME280;37452;51.938;4.624;2023-03-11T01:46:23;78064.66;;;-142.75;100.00
41632;BME280;37452;51.938;4.624;2023-03-11T01:48:52;78076.47;;;-142.75;100.00
41632;BME280;37452;51.938;4.624;2023-03-11T01:51:21;78078.44;;;-142.75;100.00
41632;BME280;37452;51.938;4.624;2023-03-11T01:53:48;78056.78;;;-142.75;100.00
41632;BME280;37452;51.938;4.624;2023-03-11T01:56:14;78064.66;;;-142.75;100.00
41632;BME280;37452;51.938;4.624;2023-03-11T01:58:40;78066.63;;;-142.75;100.00
41632;BME280;37452;51.938;4.624;2023-03-11T02:01:08;78058.72;;;-142.75;100.00
41632;BME280;37452;51.938;4.624;2023-03-11T02:03:38;78058.72;;;-142.75;100.00
41632;BME280;37452;51.938;4.624;2023-03-11T02:06:05;78062.69;;;-142.75;100.00
41632;BME280;37452;51.938;4.624;2023-03-11T02:08:31;78066.63;;;-142.75;100.00
41632;BME280;37452;51.938;4.624;2023-03-11T02:10:58;78070.56;;;-142.75;100.00
41632;BME280;37452;51.938;4.624;2023-03-11T02:13:24;78086.31;;;-142.75;100.00
41632;BME280;37452;51.938;4.624;2023-03-11T02:15:50;78086.31;;;-142.75;100.00
41632;BME280;37452;51.938;4.624;2023-03-11T02:18:15;78088.28;;;-142.75;100.00
41632;BME280;37452;51.938;4.624;2023-03-11T02:20:46;78094.19;;;-142.75;100.00
41632;BME280;37452;51.938;4.624;2023-03-11T02:23:13;78080.41;;;-142.75;100.00
41632;BME280;37452;51.938;4.624;2023-03-11T02:28:05;78068.59;;;-142.75;100.00
41632;BME280;37452;51.938;4.624;2023-03-11T02:30:32;78058.72;;;-142.75;100.00
41632;BME280;37452;51.938;4.624;2023-03-11T02:32:58;78060.72;;;-142.75;100.00
41632;BME280;37452;51.938;4.624;2023-03-11T02:35:23;78054.81;;;-142.75;100.00
41632;BME280;37452;51.938;4.624;2023-03-11T02:37:50;78044.94;;;-142.75;100.00
41632;BME280;37452;51.938;4.624;2023-03-11T02:42:47;78054.81;;;-142.75;100.00
41632;BME280;37452;51.938;4.624;2023-03-11T02:45:13;78056.78;;;-142.75;100.00
41632;BME280;37452;51.938;4.624;2023-03-11T02:47:40;78046.91;;;-142.75;100.00
41632;BME280;37452;51.938;4.624;2023-03-11T02:50:06;78042.97;;;-142.75;100.00
41632;BME280;37452;51.938;4.624;2023-03-11T02:52:33;78048.88;;;-142.75;100.00
41632;BME280;37452;51.938;4.624;2023-03-11T02:54:59;78058.72;;;-142.75;100.00
41632;BME280;37452;51.938;4.624;2023-03-11T02:57:24;78054.81;;;-142.75;100.00
41632;BME280;37452;51.938;4.624;2023-03-11T02:59:49;78058.72;;;-142.75;100.00
41632;BME280;37452;51.938;4.624;2023-03-11T03:02:15;78066.63;;;-142.75;100.00
41632;BME280;37452;51.938;4.624;2023-03-11T03:04:40;78066.63;;;-142.75;100.00
41632;BME280;37452;51.938;4.624;2023-03-11T03:07:05;78064.66;;;-142.75;100.00
41632;BME280;37452;51.938;4.624;2023-03-11T03:09:31;78074.50;;;-142.75;100.00
41632;BME280;37452;51.938;4.624;2023-03-11T03:11:56;78064.66;;;-142.75;100.00
41632;BME280;37452;51.938;4.624;2023-03-11T03:14:21;78074.50;;;-142.75;100.00
41632;BME280;37452;51.938;4.624;2023-03-11T03:16:47;78072.53;;;-142.75;100.00
41632;BME280;37452;51.938;4.624;2023-03-11T03:19:12;78074.50;;;-142.75;100.00
41632;BME280;37452;51.938;4.624;2023-03-11T03:21:37;78070.56;;;-142.75;100.00
41632;BME280;37452;51.938;4.624;2023-03-11T03:24:02;78080.41;;;-142.75;100.00
41632;BME280;37452;51.938;4.624;2023-03-11T03:26:28;78088.28;;;-142.75;100.00
41632;BME280;37452;51.938;4.624;2023-03-11T03:28:53;78080.41;;;-142.75;100.00
41632;BME280;37452;51.938;4.624;2023-03-11T03:31:18;78088.28;;;-142.75;100.00
41632;BME280;37452;51.938;4.624;2023-03-11T03:33:44;78090.25;;;-142.75;100.00
41632;BME280;37452;51.938;4.624;2023-03-11T03:36:10;78078.44;;;-142.75;100.00
41632;BME280;37452;51.938;4.624;2023-03-11T03:38:35;78080.41;;;-142.75;100.00
41632;BME280;37452;51.938;4.624;2023-03-11T03:41:01;78078.44;;;-142.75;100.00
41632;BME280;37452;51.938;4.624;2023-03-11T03:43:26;78084.34;;;-142.75;100.00
41632;BME280;37452;51.938;4.624;2023-03-11T03:45:58;78072.53;;;-142.75;100.00
41632;BME280;37452;51.938;4.624;2023-03-11T03:48:24;78078.44;;;-142.75;100.00
41632;BME280;37452;51.938;4.624;2023-03-11T03:50:49;78090.25;;;-142.75;100.00
41632;BME280;37452;51.938;4.624;2023-03-11T03:53:14;78086.31;;;-142.75;100.00
41632;BME280;37452;51.938;4.624;2023-03-11T03:55:40;78100.09;;;-142.75;100.00
41632;BME280;37452;51.938;4.624;2023-03-11T03:58:05;78094.19;;;-142.75;100.00
41632;BME280;37452;51.938;4.624;2023-03-11T04:00:30;78111.91;;;-142.75;100.00
41632;BME280;37452;51.938;4.624;2023-03-11T04:02:55;78109.94;;;-142.75;100.00
41632;BME280;37452;51.938;4.624;2023-03-11T04:05:21;78098.13;;;-142.75;100.00
41632;BME280;37452;51.938;4.624;2023-03-11T04:07:46;78107.97;;;-142.75;100.00
41632;BME280;37452;51.938;4.624;2023-03-11T04:10:12;78109.94;;;-142.75;100.00
41632;BME280;37452;51.938;4.624;2023-03-11T04:12:38;78115.84;;;-142.75;100.00
41632;BME280;37452;51.938;4.624;2023-03-11T04:15:03;78113.88;;;-142.75;100.00
41632;BME280;37452;51.938;4.624;2023-03-11T04:17:28;78115.84;;;-142.75;100.00
41632;BME280;37452;51.938;4.624;2023-03-11T04:19:54;78117.81;;;-142.75;100.00
41632;BME280;37452;51.938;4.624;2023-03-11T04:22:19;78129.63;;;-142.75;100.00
41632;BME280;37452;51.938;4.624;2023-03-11T04:24:44;78127.66;;;-142.75;100.00
41632;BME280;37452;51.938;4.624;2023-03-11T04:27:10;78133.56;;;-142.75;100.00
41632;BME280;37452;51.938;4.624;2023-03-11T04:29:35;78141.44;;;-142.75;100.00
41632;BME280;37452;51.938;4.624;2023-03-11T04:32:00;78147.34;;;-142.75;100.00
41632;BME280;37452;51.938;4.624;2023-03-11T04:34:25;78145.38;;;-142.75;100.00
41632;BME280;37452;51.938;4.624;2023-03-11T04:36:51;78141.44;;;-142.75;100.00
41632;BME280;37452;51.938;4.624;2023-03-11T04:39:17;78149.31;;;-142.75;100.00
41632;BME280;37452;51.938;4.624;2023-03-11T04:41:42;78141.44;;;-142.75;100.00
41632;BME280;37452;51.938;4.624;2023-03-11T04:44:08;78139.47;;;-142.75;100.00
41632;BME280;37452;51.938;4.624;2023-03-11T04:46:33;78155.22;;;-142.75;100.00
41632;BME280;37452;51.938;4.624;2023-03-11T04:48:58;78151.28;;;-142.75;100.00
41632;BME280;37452;51.938;4.624;2023-03-11T04:51:23;78153.25;;;-142.75;100.00
41632;BME280;37452;51.938;4.624;2023-03-11T04:53:49;78141.44;;;-142.75;100.00
41632;BME280;37452;51.938;4.624;2023-03-11T04:56:14;78151.28;;;-142.75;100.00
41632;BME280;37452;51.938;4.624;2023-03-11T04:58:39;78176.88;;;-142.75;100.00
41632;BME280;37452;51.938;4.624;2023-03-11T05:01:04;78178.84;;;-142.75;100.00
41632;BME280;37452;51.938;4.624;2023-03-11T05:03:29;78176.88;;;-142.75;100.00
41632;BME280;37452;51.938;4.624;2023-03-11T05:05:57;78180.81;;;-142.75;100.00
41632;BME280;37452;51.938;4.624;2023-03-11T05:08:24;78180.81;;;-142.75;100.00
41632;BME280;37452;51.938;4.624;2023-03-11T05:10:50;78172.94;;;-142.75;100.00
41632;BME280;37452;51.938;4.624;2023-03-11T05:13:16;78178.84;;;-142.75;100.00
41632;BME280;37452;51.938;4.624;2023-03-11T05:15:44;78176.88;;;-142.75;100.00
41632;BME280;37452;51.938;4.624;2023-03-11T05:18:09;78180.81;;;-142.75;100.00
41632;BME280;37452;51.938;4.624;2023-03-11T05:20:34;78182.81;;;-142.75;100.00
41632;BME280;37452;51.938;4.624;2023-03-11T05:23:00;78194.63;;;-142.75;100.00
41632;BME280;37452;51.938;4.624;2023-03-11T05:25:25;78192.66;;;-142.75;100.00
41632;BME280;37452;51.938;4.624;2023-03-11T05:27:50;78194.63;;;-142.75;100.00
41632;BME280;37452;51.938;4.624;2023-03-11T05:30:15;78194.63;;;-142.75;100.00
41632;BME280;37452;51.938;4.624;2023-03-11T05:32:41;78188.72;;;-142.75;100.00
41632;BME280;37452;51.938;4.624;2023-03-11T05:35:06;78228.09;;;-142.75;100.00
41632;BME280;37452;51.938;4.624;2023-03-11T05:37:31;78267.47;;;-142.75;100.00
41632;BME280;37452;51.938;4.624;2023-03-11T05:39:57;78253.69;;;-142.75;100.00
41632;BME280;37452;51.938;4.624;2023-03-11T05:42:22;78255.66;;;-142.75;100.00
41632;BME280;37452;51.938;4.624;2023-03-11T05:44:47;78253.69;;;-142.75;100.00
41632;BME280;37452;51.938;4.624;2023-03-11T05:47:13;78285.19;;;-142.75;100.00
41632;BME280;37452;51.938;4.624;2023-03-11T05:49:38;78265.50;;;-142.75;100.00
41632;BME280;37452;51.938;4.624;2023-03-11T05:52:03;78287.16;;;-142.75;100.00
41632;BME280;37452;51.938;4.624;2023-03-11T05:54:28;78291.09;;;-142.75;100.00
41632;BME280;37452;51.938;4.624;2023-03-11T05:56:54;78306.88;;;-142.75;100.00
41632;BME280;37452;51.938;4.624;2023-03-11T05:59:19;78302.94;;;-142.75;100.00
41632;BME280;37452;51.938;4.624;2023-03-11T06:01:45;78297.00;;;-142.75;100.00
41632;BME280;37452;51.938;4.624;2023-03-11T06:04:10;78291.09;;;-142.75;100.00
41632;BME280;37452;51.938;4.624;2023-03-11T06:06:37;78275.34;;;-142.75;100.00
41632;BME280;37452;51.938;4.624;2023-03-11T06:09:02;78277.31;;;-142.75;100.00
41632;BME280;37452;51.938;4.624;2023-03-11T06:11:28;78279.28;;;-142.75;100.00
41632;BME280;37452;51.938;4.624;2023-03-11T06:13:53;78295.06;;;-142.75;100.00
41632;BME280;37452;51.938;4.624;2023-03-11T06:16:20;78275.34;;;-142.75;100.00
41632;BME280;37452;51.938;4.624;2023-03-11T06:18:45;78273.38;;;-142.75;100.00
41632;BME280;37452;51.938;4.624;2023-03-11T06:21:20;78271.41;;;-142.75;100.00
41632;BME280;37452;51.938;4.624;2023-03-11T06:23:46;78253.69;;;-142.75;100.00
41632;BME280;37452;51.938;4.624;2023-03-11T06:26:12;78243.84;;;-142.75;100.00
41632;BME280;37452;51.938;4.624;2023-03-11T06:28:38;78216.28;;;-142.75;100.00
41632;BME280;37452;51.938;4.624;2023-03-11T06:31:19;78194.63;;;-142.75;100.00
41632;BME280;37452;51.938;4.624;2023-03-11T06:33:45;78184.78;;;-142.75;100.00
41632;BME280;37452;51.938;4.624;2023-03-11T06:36:11;78182.81;;;-142.75;100.00
41632;BME280;37452;51.938;4.624;2023-03-11T06:38:36;78176.88;;;-142.75;100.00
41632;BME280;37452;51.938;4.624;2023-03-11T06:41:02;78161.13;;;-142.75;100.00
41632;BME280;37452;51.938;4.624;2023-03-11T06:43:29;78141.44;;;-142.75;100.00
41632;BME280;37452;51.938;4.624;2023-03-11T06:45:55;78125.69;;;-142.75;100.00
41632;BME280;37452;51.938;4.624;2023-03-11T06:48:20;78109.94;;;-142.75;100.00
41632;BME280;37452;51.938;4.624;2023-03-11T06:50:55;78088.28;;;-142.75;100.00
41632;BME280;37452;51.938;4.624;2023-03-11T06:53:21;78094.19;;;-142.75;100.00
41632;BME280;37452;51.938;4.624;2023-03-11T06:55:56;78074.50;;;-142.75;100.00
41632;BME280;37452;51.938;4.624;2023-03-11T06:58:21;78060.72;;;-142.75;100.00
41632;BME280;37452;51.938;4.624;2023-03-11T07:00:46;78039.03;;;-142.75;100.00
41632;BME280;37452;51.938;4.624;2023-03-11T07:03:11;78017.38;;;-142.75;100.00
41632;BME280;37452;51.938;4.624;2023-03-11T07:05:37;77987.84;;;-142.75;100.00
41632;BME280;37452;51.938;4.624;2023-03-11T07:08:02;77954.38;;;-142.75;100.00
41632;BME280;37452;51.938;4.624;2023-03-11T07:10:27;77956.34;;;-142.75;100.00
41632;BME280;37452;51.938;4.624;2023-03-11T07:12:52;77942.56;;;-142.75;100.00
41632;BME280;37452;51.938;4.624;2023-03-11T07:15:18;77954.38;;;-142.75;100.00
41632;BME280;37452;51.938;4.624;2023-03-11T07:17:43;78013.44;;;-142.75;100.00
41632;BME280;37452;51.938;4.624;2023-03-11T07:20:08;77970.13;;;-142.75;100.00
41632;BME280;37452;51.938;4.624;2023-03-11T07:22:34;77946.50;;;-142.75;100.00
41632;BME280;37452;51.938;4.624;2023-03-11T07:24:59;77920.91;;;-142.75;100.00
41632;BME280;37452;51.938;4.624;2023-03-11T07:27:24;77915.00;;;-142.75;100.00
41632;BME280;37452;51.938;4.624;2023-03-11T07:29:51;77885.44;;;-142.75;100.00
41632;BME280;37452;51.938;4.624;2023-03-11T07:32:16;77822.44;;;-142.75;100.00
41632;BME280;37452;51.938;4.624;2023-03-11T07:34:41;77834.25;;;-142.75;100.00
41632;BME280;37452;51.938;4.624;2023-03-11T07:37:07;77787.00;;;-142.75;100.00
41632;BME280;37452;51.938;4.624;2023-03-11T07:39:32;77804.72;;;-142.75;100.00
41632;BME280;37452;51.938;4.624;2023-03-11T07:41:57;77755.50;;;-142.75;100.00
41632;BME280;37452;51.938;4.624;2023-03-11T07:44:22;77723.97;;;-142.75;100.00
41632;BME280;37452;51.938;4.624;2023-03-11T07:46:47;77712.16;;;-142.75;100.00
41632;BME280;37452;51.938;4.624;2023-03-11T07:49:13;77694.44;;;-142.75;100.00
41632;BME280;37452;51.938;4.624;2023-03-11T07:51:38;77653.09;;;-142.75;100.00
41632;BME280;37452;51.938;4.624;2023-03-11T07:54:05;77635.38;;;-142.75;100.00
41632;BME280;37452;51.938;4.624;2023-03-11T07:56:31;77590.09;;;-142.75;100.00
41632;BME280;37452;51.938;4.624;2023-03-11T07:58:57;77592.06;;;-142.75;99.25
41632;BME280;37452;51.938;4.624;2023-03-11T08:01:23;77611.75;;;-142.75;100.00
41632;BME280;37452;51.938;4.624;2023-03-11T08:03:50;77607.81;;;-142.75;100.00
41632;BME280;37452;51.938;4.624;2023-03-11T08:06:21;77619.63;;;-142.75;100.00
41632;BME280;37452;51.938;4.624;2023-03-11T08:08:47;77564.50;;;-142.75;100.00
41632;BME280;37452;51.938;4.624;2023-03-11T08:11:13;77597.97;;;-142.75;100.00
41632;BME280;37452;51.938;4.624;2023-03-11T08:13:39;77586.16;;;-142.75;100.00
41632;BME280;37452;51.938;4.624;2023-03-11T08:16:05;77588.13;;;-142.75;95.98
41632;BME280;37452;51.938;4.624;2023-03-11T08:18:30;77554.66;;;-142.75;94.86
41632;BME280;37452;51.938;4.624;2023-03-11T08:20:56;77540.88;;;-142.75;92.65
41632;BME280;37452;51.938;4.624;2023-03-11T08:23:21;77525.13;;;-142.75;83.36
41632;BME280;37452;51.938;4.624;2023-03-11T08:25:46;77546.78;;;-142.75;80.77
41632;BME280;37452;51.938;4.624;2023-03-11T08:28:12;77475.91;;;-142.75;78.12
41632;BME280;37452;51.938;4.624;2023-03-11T08:30:37;77519.22;;;-142.75;74.28
41632;BME280;37452;51.938;4.624;2023-03-11T08:33:02;77515.28;;;-142.75;74.05
41632;BME280;37452;51.938;4.624;2023-03-11T08:35:27;77493.63;;;-142.75;73.76
41632;BME280;37452;51.938;4.624;2023-03-11T08:37:53;77483.78;;;-142.75;72.81
41632;BME280;37452;51.938;4.624;2023-03-11T08:40:18;77464.09;;;-142.75;75.56
41632;BME280;37452;51.938;4.624;2023-03-11T08:42:43;77440.44;;;-142.75;72.99
41632;BME280;37452;51.938;4.624;2023-03-11T08:45:09;77393.19;;;-142.75;71.69
41632;BME280;37452;51.938;4.624;2023-03-11T08:47:35;77450.28;;;-142.75;73.55
41632;BME280;37452;51.938;4.624;2023-03-11T08:50:01;77418.78;;;-142.75;73.81
41632;BME280;37452;51.938;4.624;2023-03-11T08:52:26;77420.75;;;-142.75;75.03
41632;BME280;37452;51.938;4.624;2023-03-11T08:54:51;77479.84;;;-142.75;75.08
41632;BME280;37452;51.938;4.624;2023-03-11T08:57:16;77440.44;;;-142.75;76.35
41632;BME280;37452;51.938;4.624;2023-03-11T08:59:41;77448.34;;;-142.75;76.60
41632;BME280;37452;51.938;4.624;2023-03-11T09:02:08;77468.03;;;-142.75;71.78
41632;BME280;37452;51.938;4.624;2023-03-11T09:04:33;77460.13;;;-142.75;71.56
41632;BME280;37452;51.938;4.624;2023-03-11T09:06:59;77501.50;;;-142.75;70.73
41632;BME280;37452;51.938;4.624;2023-03-11T09:09:24;77460.13;;;-142.75;71.29
41632;BME280;37452;51.938;4.624;2023-03-11T09:11:49;77436.50;;;-142.75;72.70
41632;BME280;37452;51.938;4.624;2023-03-11T09:14:14;77483.78;;;-142.75;72.26
41632;BME280;37452;51.938;4.624;2023-03-11T09:16:40;77497.56;;;-142.75;72.78
41632;BME280;37452;51.938;4.624;2023-03-11T09:19:05;77489.69;;;-142.75;72.08
41632;BME280;37452;51.938;4.624;2023-03-11T09:21:34;77481.81;;;-142.75;72.54
41632;BME280;37452;51.938;4.624;2023-03-11T09:24:00;77483.78;;;-142.75;73.91
41632;BME280;37452;51.938;4.624;2023-03-11T09:26:25;77487.72;;;-142.75;75.75
41632;BME280;37452;51.938;4.624;2023-03-11T09:28:51;77473.94;;;-142.75;76.22
41632;BME280;37452;51.938;4.624;2023-03-11T09:31:16;77471.97;;;-142.75;76.48
41632;BME280;37452;51.938;4.624;2023-03-11T09:33:44;77566.47;;;-142.75;72.91
41632;BME280;37452;51.938;4.624;2023-03-11T09:36:11;77491.66;;;-142.75;72.52
41632;BME280;37452;51.938;4.624;2023-03-11T09:38:36;77491.66;;;-142.75;72.76
41632;BME280;37452;51.938;4.624;2023-03-11T09:41:13;77475.91;;;-142.75;74.32
41632;BME280;37452;51.938;4.624;2023-03-11T09:48:56;77422.72;;;-142.75;71.01
41632;BME280;37452;51.938;4.624;2023-03-11T09:51:25;77475.91;;;-142.75;71.03
41632;BME280;37452;51.938;4.624;2023-03-11T09:53:54;77460.13;;;-142.75;70.82
41632;BME280;37452;51.938;4.624;2023-03-11T09:56:21;77464.09;;;-142.75;72.18
41632;BME280;37452;51.938;4.624;2023-03-11T09:58:47;77507.41;;;-142.75;70.30
41632;BME280;37452;51.938;4.624;2023-03-11T10:01:20;77471.97;;;-142.75;71.70
41632;BME280;37452;51.938;4.624;2023-03-11T10:03:47;77542.84;;;-142.75;70.42
41632;BME280;37452;51.938;4.624;2023-03-11T10:06:15;77548.75;;;-142.75;71.44
41632;BME280;37452;51.938;4.624;2023-03-11T10:11:54;77586.16;;;-142.75;71.59
41632;BME280;37452;51.938;4.624;2023-03-11T10:24:47;77568.44;;;-142.75;71.48
41632;BME280;37452;51.938;4.624;2023-03-11T10:27:16;77623.56;;;-142.75;75.94
41632;BME280;37452;51.938;4.624;2023-03-11T10:29:59;77619.63;;;-142.75;74.80
41632;BME280;37452;51.938;4.624;2023-03-11T10:35:37;77603.88;;;-142.75;73.68
41632;BME280;37452;51.938;4.624;2023-03-11T10:38:44;77554.66;;;-142.75;75.25
41632;BME280;37452;51.938;4.624;2023-03-11T10:40:41;77556.63;;;-142.75;74.97
41632;BME280;37452;51.938;4.624;2023-03-11T10:43:12;77615.69;;;-142.75;75.24
41632;BME280;37452;51.938;4.624;2023-03-11T10:45:40;77603.88;;;-142.75;76.00
41632;BME280;37452;51.938;4.624;2023-03-11T10:48:13;77607.81;;;-142.75;75.08
41632;BME280;37452;51.938;4.624;2023-03-11T10:50:45;77635.38;;;-142.75;75.27
41632;BME280;37452;51.938;4.624;2023-03-11T10:53:14;77698.38;;;-142.75;76.95
41632;BME280;37452;51.938;4.624;2023-03-11T10:55:48;77700.34;;;-142.75;77.51
41632;BME280;37452;51.938;4.624;2023-03-11T10:58:15;77664.91;;;-142.75;76.61
41632;BME280;37452;51.938;4.624;2023-03-11T11:00:41;77657.03;;;-142.75;77.46
41632;BME280;37452;51.938;4.624;2023-03-11T11:03:11;77668.84;;;-142.75;76.00
41632;BME280;37452;51.938;4.624;2023-03-11T11:05:40;77607.81;;;-142.75;75.76
41632;BME280;37452;51.938;4.624;2023-03-11T11:08:12;77574.34;;;-142.75;77.58
41632;BME280;37452;51.938;4.624;2023-03-11T11:10:37;77521.19;;;-142.75;78.32
41632;BME280;37452;51.938;4.624;2023-03-11T11:15:41;77515.28;;;-142.75;76.78
41632;BME280;37452;51.938;4.624;2023-03-11T11:20:55;77436.50;;;-142.75;72.18
41632;BME280;37452;51.938;4.624;2023-03-11T11:23:24;77454.25;;;-142.75;73.78
41632;BME280;37452;51.938;4.624;2023-03-11T11:25:54;77357.75;;;-142.75;73.84
41632;BME280;37452;51.938;4.624;2023-03-11T11:28:21;77442.41;;;-142.75;69.05
41632;BME280;37452;51.938;4.624;2023-03-11T11:30:56;77308.53;;;-142.75;68.36
41632;BME280;37452;51.938;4.624;2023-03-11T11:33:48;77259.31;;;-142.75;69.41
41632;BME280;37452;51.938;4.624;2023-03-11T11:36:11;77214.03;;;-142.75;68.90
41632;BME280;37452;51.938;4.624;2023-03-11T11:38:38;77229.78;;;-142.75;64.57
41632;BME280;37452;51.938;4.624;2023-03-11T11:41:03;77245.53;;;-142.75;64.79
41632;BME280;37452;51.938;4.624;2023-03-11T11:45:59;77170.72;;;-142.75;66.39
41632;BME280;37452;51.938;4.624;2023-03-11T11:48:28;77208.13;;;-142.75;62.58
41632;BME280;37452;51.938;4.624;2023-03-11T11:51:00;77172.69;;;-142.75;61.63
41632;BME280;37452;51.938;4.624;2023-03-11T11:53:37;77111.66;;;-142.75;63.29
41632;BME280;37452;51.938;4.624;2023-03-11T11:56:03;77097.88;;;-142.75;60.01
41632;BME280;37452;51.938;4.624;2023-03-11T11:58:29;77088.03;;;-142.75;56.70
41632;BME280;37452;51.938;4.624;2023-03-11T12:05:51;77054.56;;;-142.75;58.70
41632;BME280;37452;51.938;4.624;2023-03-11T12:08:31;77038.81;;;-142.75;56.88
41632;BME280;37452;51.938;4.624;2023-03-11T12:11:01;76938.41;;;-142.75;57.10
41632;BME280;37452;51.938;4.624;2023-03-11T12:15:56;76962.03;;;-142.75;53.38
41632;BME280;37452;51.938;4.624;2023-03-11T12:18:27;76934.47;;;-142.75;51.00
41632;BME280;37452;51.938;4.624;2023-03-11T12:20:54;76887.22;;;-142.75;51.22
41632;BME280;37452;51.938;4.624;2023-03-11T12:23:36;76855.72;;;-142.75;45.07
41632;BME280;37452;51.938;4.624;2023-03-11T12:26:20;76883.28;;;-142.75;46.51
41632;BME280;37452;51.938;4.624;2023-03-11T12:31:11;76845.88;;;-142.75;50.14
41632;BME280;37452;51.938;4.624;2023-03-11T12:33:47;76871.47;;;-142.75;48.87
41632;BME280;37452;51.938;4.624;2023-03-11T12:36:34;76771.09;;;-142.75;44.94
41632;BME280;37452;51.938;4.624;2023-03-11T12:39:01;76893.13;;;-142.75;46.31
41632;BME280;37452;51.938;4.624;2023-03-11T12:46:23;76820.28;;;-142.75;51.34
41632;BME280;37452;51.938;4.624;2023-03-11T12:49:12;76790.78;;;-142.75;45.78
41632;BME280;37452;51.938;4.624;2023-03-11T12:51:38;76822.25;;;-142.75;46.23
41632;BME280;37452;51.938;4.624;2023-03-11T12:54:20;76830.13;;;-142.75;47.99
41632;BME280;37452;51.938;4.624;2023-03-11T12:56:50;76877.38;;;-142.75;42.32
41632;BME280;37452;51.938;4.624;2023-03-11T13:01:46;76845.88;;;-142.75;43.55
41632;BME280;37452;51.938;4.624;2023-03-11T13:18:31;77003.38;;;-142.75;46.79
41632;BME280;37452;51.938;4.624;2023-03-11T13:25:43;77054.56;;;-142.75;46.82
41632;BME280;37452;51.938;4.624;2023-03-11T13:30:58;77086.06;;;-142.75;49.48
41632;BME280;37452;51.938;4.624;2023-03-11T13:33:44;77125.44;;;-142.75;48.20
41632;BME280;37452;51.938;4.624;2023-03-11T13:36:24;77182.53;;;-142.75;43.75
41632;BME280;37452;51.938;4.624;2023-03-11T13:39:06;77162.84;;;-142.75;43.10
41632;BME280;37452;51.938;4.624;2023-03-11T13:41:36;77275.06;;;-142.75;40.09
41632;BME280;37452;51.938;4.624;2023-03-11T13:46:39;77377.44;;;-142.75;42.17
41632;BME280;37452;51.938;4.624;2023-03-11T13:49:11;77397.13;;;-142.75;43.87